sensor_id;sensor_type;location;lat;lon;timestamp;pressure;altitude;pressure_sealevel;temperature;humidity
25526;BME280;13424;48.424;11.258;2023-02-01T00:03:25;96088.38;;;4.84;77.42
25526;BME280;13424;48.424;11.258;2023-02-01T00:05:58;96077.84;;;4.90;76.52
25526;BME280;13424;48.424;11.258;2023-02-01T00:08:24;96079.78;;;4.82;76.87
25526;BME280;13424;48.424;11.258;2023-02-01T00:11:01;96073.25;;;4.78;77.36
25526;BME280;13424;48.424;11.258;2023-02-01T00:13:33;96068.75;;;4.71;77.78
25526;BME280;13424;48.424;11.258;2023-02-01T00:16:05;96083.22;;;4.75;77.60
25526;BME280;13424;48.424;11.258;2023-02-01T00:18:37;96078.28;;;4.72;78.11
25526;BME280;13424;48.424;11.258;2023-02-01T00:21:03;96078.94;;;4.74;77.85
25526;BME280;13424;48.424;11.258;2023-02-01T00:27:35;96069.00;;;4.76;77.36
25526;BME280;13424;48.424;11.258;2023-02-01T00:30:00;96075.91;;;4.78;77.80
25526;BME280;13424;48.424;11.258;2023-02-01T00:36:34;96080.44;;;4.84;78.89
25526;BME280;13424;48.424;11.258;2023-02-01T00:38:59;96076.25;;;4.96;77.55
25526;BME280;13424;48.424;11.258;2023-02-01T00:41:25;96066.34;;;4.76;77.89
25526;BME280;13424;48.424;11.258;2023-02-01T00:43:51;96076.38;;;4.60;78.62
25526;BME280;13424;48.424;11.258;2023-02-01T00:46:24;96060.94;;;4.63;79.30
25526;BME280;13424;48.424;11.258;2023-02-01T00:48:50;96057.97;;;4.45;79.48
25526;BME280;13424;48.424;11.258;2023-02-01T00:51:20;96065.91;;;4.73;78.68
25526;BME280;13424;48.424;11.258;2023-02-01T00:53:46;96078.81;;;4.61;79.22
25526;BME280;13424;48.424;11.258;2023-02-01T00:56:12;96080.84;;;4.87;78.33
25526;BME280;13424;48.424;11.258;2023-02-01T00:58:40;96071.53;;;4.63;79.36
25526;BME280;13424;48.424;11.258;2023-02-01T01:01:13;96069.56;;;4.72;78.64
25526;BME280;13424;48.424;11.258;2023-02-01T01:03:42;96067.31;;;4.47;79.22
25526;BME280;13424;48.424;11.258;2023-02-01T01:06:11;96055.47;;;4.65;79.29
25526;BME280;13424;48.424;11.258;2023-02-01T01:08:38;96059.91;;;4.86;78.54
25526;BME280;13424;48.424;11.258;2023-02-01T01:11:16;96066.16;;;4.78;78.66
25526;BME280;13424;48.424;11.258;2023-02-01T01:13:48;96055.81;;;4.55;79.82
25526;BME280;13424;48.424;11.258;2023-02-01T01:16:14;96056.88;;;4.61;78.87
25526;BME280;13424;48.424;11.258;2023-02-01T01:18:42;96053.63;;;4.59;79.63
25526;BME280;13424;48.424;11.258;2023-02-01T01:21:09;96048.88;;;4.54;79.65
25526;BME280;13424;48.424;11.258;2023-02-01T01:23:36;96038.56;;;4.59;79.28
25526;BME280;13424;48.424;11.258;2023-02-01T01:26:12;96041.56;;;4.78;78.28
25526;BME280;13424;48.424;11.258;2023-02-01T01:28:39;96048.47;;;4.79;78.63
25526;BME280;13424;48.424;11.258;2023-02-01T01:31:12;96047.69;;;4.85;78.87
25526;BME280;13424;48.424;11.258;2023-02-01T01:33:38;96042.69;;;4.96;78.75
25526;BME280;13424;48.424;11.258;2023-02-01T01:36:08;96036.25;;;5.06;78.19
25526;BME280;13424;48.424;11.258;2023-02-01T01:38:54;96031.91;;;4.91;78.73
25526;BME280;13424;48.424;11.258;2023-02-01T01:41:25;96025.84;;;5.04;78.49
25526;BME280;13424;48.424;11.258;2023-02-01T01:44:05;96031.91;;;4.91;78.45
25526;BME280;13424;48.424;11.258;2023-02-01T01:47:19;96018.56;;;5.13;78.22
25526;BME280;13424;48.424;11.258;2023-02-01T01:49:44;96018.00;;;4.83;79.00
25526;BME280;13424;48.424;11.258;2023-02-01T01:52:11;96023.25;;;4.76;79.05
25526;BME280;13424;48.424;11.258;2023-02-01T01:58:44;96031.06;;;4.91;78.73
25526;BME280;13424;48.424;11.258;2023-02-01T02:01:10;96032.81;;;5.12;78.25
25526;BME280;13424;48.424;11.258;2023-02-01T02:03:42;96029.63;;;4.88;79.09
25526;BME280;13424;48.424;11.258;2023-02-01T02:06:20;96034.19;;;5.01;78.75
25526;BME280;13424;48.424;11.258;2023-02-01T02:08:52;96040.19;;;5.16;77.74
25526;BME280;13424;48.424;11.258;2023-02-01T02:11:18;96037.91;;;4.79;79.42
25526;BME280;13424;48.424;11.258;2023-02-01T02:13:48;96032.81;;;5.12;78.15
25526;BME280;13424;48.424;11.258;2023-02-01T02:19:42;96026.78;;;5.24;77.99
25526;BME280;13424;48.424;11.258;2023-02-01T02:22:40;96024.19;;;4.96;78.31
25526;BME280;13424;48.424;11.258;2023-02-01T02:28:51;96031.88;;;5.26;76.99
25526;BME280;13424;48.424;11.258;2023-02-01T02:32:09;96039.41;;;5.29;77.38
25526;BME280;13424;48.424;11.258;2023-02-01T02:37:46;96036.28;;;5.12;77.96
25526;BME280;13424;48.424;11.258;2023-02-01T02:40:19;96033.16;;;5.02;77.36
25526;BME280;13424;48.424;11.258;2023-02-01T02:43:08;96024.66;;;5.07;78.17
25526;BME280;13424;48.424;11.258;2023-02-01T02:46:03;96025.53;;;5.20;77.48
25526;BME280;13424;48.424;11.258;2023-02-01T02:49:04;96022.72;;;5.28;76.87
25526;BME280;13424;48.424;11.258;2023-02-01T02:51:41;96022.84;;;5.07;77.17
25526;BME280;13424;48.424;11.258;2023-02-01T02:54:34;96009.09;;;5.25;76.96
25526;BME280;13424;48.424;11.258;2023-02-01T02:57:30;96004.13;;;5.09;77.21
25526;BME280;13424;48.424;11.258;2023-02-01T03:00:20;96005.41;;;5.19;77.19
25526;BME280;13424;48.424;11.258;2023-02-01T03:03:06;96011.66;;;5.12;77.67
25526;BME280;13424;48.424;11.258;2023-02-01T03:05:51;95998.91;;;4.87;78.31
25526;BME280;13424;48.424;11.258;2023-02-01T03:08:29;95994.84;;;4.85;78.39
25526;BME280;13424;48.424;11.258;2023-02-01T03:11:08;96000.22;;;4.98;78.50
25526;BME280;13424;48.424;11.258;2023-02-01T03:16:43;95995.22;;;4.82;78.44
25526;BME280;13424;48.424;11.258;2023-02-01T03:19:25;95997.47;;;5.19;77.54
25526;BME280;13424;48.424;11.258;2023-02-01T03:22:12;95989.72;;;5.18;77.30
25526;BME280;13424;48.424;11.258;2023-02-01T03:24:52;95990.00;;;4.95;78.33
25526;BME280;13424;48.424;11.258;2023-02-01T03:27:37;95981.50;;;4.99;77.88
25526;BME280;13424;48.424;11.258;2023-02-01T03:32:45;95979.06;;;4.98;78.49
25526;BME280;13424;48.424;11.258;2023-02-01T03:38:45;95984.41;;;4.76;79.62
25526;BME280;13424;48.424;11.258;2023-02-01T03:41:27;95977.97;;;4.86;78.68
25526;BME280;13424;48.424;11.258;2023-02-01T03:44:27;95960.16;;;5.01;78.21
25526;BME280;13424;48.424;11.258;2023-02-01T03:47:23;95960.41;;;5.06;77.65
25526;BME280;13424;48.424;11.258;2023-02-01T03:49:58;95961.00;;;5.08;77.87
25526;BME280;13424;48.424;11.258;2023-02-01T03:52:33;95965.72;;;5.19;77.27
25526;BME280;13424;48.424;11.258;2023-02-01T03:55:04;95970.16;;;5.12;77.46
25526;BME280;13424;48.424;11.258;2023-02-01T03:57:37;95965.16;;;4.83;78.47
25526;BME280;13424;48.424;11.258;2023-02-01T04:00:17;95968.00;;;4.88;78.36
25526;BME280;13424;48.424;11.258;2023-02-01T04:02:44;95971.75;;;5.00;78.02
25526;BME280;13424;48.424;11.258;2023-02-01T04:05:16;95978.38;;;4.83;78.37
25526;BME280;13424;48.424;11.258;2023-02-01T04:07:49;95970.56;;;5.09;77.72
25526;BME280;13424;48.424;11.258;2023-02-01T04:14:22;95962.88;;;5.14;77.12
25526;BME280;13424;48.424;11.258;2023-02-01T04:16:48;95970.22;;;5.25;77.04
25526;BME280;13424;48.424;11.258;2023-02-01T04:19:13;95979.50;;;5.08;77.48
25526;BME280;13424;48.424;11.258;2023-02-01T04:21:48;95971.78;;;5.07;77.61
25526;BME280;13424;48.424;11.258;2023-02-01T04:24:14;95977.59;;;4.95;78.25
25526;BME280;13424;48.424;11.258;2023-02-01T04:30:22;95983.81;;;5.16;78.16
25526;BME280;13424;48.424;11.258;2023-02-01T04:32:49;95973.41;;;5.08;77.48
25526;BME280;13424;48.424;11.258;2023-02-01T04:35:16;95964.09;;;5.18;77.55
25526;BME280;13424;48.424;11.258;2023-02-01T04:37:43;95971.44;;;5.23;77.95
25526;BME280;13424;48.424;11.258;2023-02-01T04:40:09;95972.44;;;5.15;77.37
25526;BME280;13424;48.424;11.258;2023-02-01T04:42:38;95975.94;;;5.22;77.34
25526;BME280;13424;48.424;11.258;2023-02-01T04:45:04;95978.19;;;5.32;77.32
25526;BME280;13424;48.424;11.258;2023-02-01T04:47:30;95970.56;;;5.09;77.32
25526;BME280;13424;48.424;11.258;2023-02-01T04:49:56;95980.81;;;5.25;76.93
25526;BME280;13424;48.424;11.258;2023-02-01T04:52:21;95978.75;;;5.21;77.44
25526;BME280;13424;48.424;11.258;2023-02-01T04:54:47;95975.63;;;5.52;76.26
25526;BME280;13424;48.424;11.258;2023-02-01T04:57:13;95980.50;;;5.48;76.21
25526;BME280;13424;48.424;11.258;2023-02-01T04:59:40;95971.50;;;5.36;76.73
25526;BME280;13424;48.424;11.258;2023-02-01T05:02:06;95970.22;;;5.25;76.89
25526;BME280;13424;48.424;11.258;2023-02-01T05:04:32;95965.53;;;5.21;77.53
25526;BME280;13424;48.424;11.258;2023-02-01T05:06:58;95961.72;;;5.30;77.16
25526;BME280;13424;48.424;11.258;2023-02-01T05:09:24;95946.53;;;5.04;77.63
25526;BME280;13424;48.424;11.258;2023-02-01T05:11:50;95958.97;;;5.10;77.70
25526;BME280;13424;48.424;11.258;2023-02-01T05:14:34;95961.53;;;4.97;79.12
25526;BME280;13424;48.424;11.258;2023-02-01T05:17:00;95963.31;;;5.24;77.84
25526;BME280;13424;48.424;11.258;2023-02-01T05:19:26;95951.13;;;5.37;77.21
25526;BME280;13424;48.424;11.258;2023-02-01T05:21:52;95942.22;;;5.38;77.38
25526;BME280;13424;48.424;11.258;2023-02-01T05:24:20;95949.84;;;5.19;77.73
25526;BME280;13424;48.424;11.258;2023-02-01T05:26:47;95935.22;;;5.17;78.28
25526;BME280;13424;48.424;11.258;2023-02-01T05:29:14;95947.00;;;5.21;78.02
25526;BME280;13424;48.424;11.258;2023-02-01T05:31:40;95947.81;;;5.15;78.57
25526;BME280;13424;48.424;11.258;2023-02-01T05:34:07;95936.78;;;5.04;78.35
25526;BME280;13424;48.424;11.258;2023-02-01T05:36:33;95946.38;;;5.12;78.40
25526;BME280;13424;48.424;11.258;2023-02-01T05:38:59;95940.06;;;5.13;78.13
25526;BME280;13424;48.424;11.258;2023-02-01T05:41:25;95940.28;;;5.18;77.90
25526;BME280;13424;48.424;11.258;2023-02-01T05:43:52;95944.56;;;5.19;77.87
25526;BME280;13424;48.424;11.258;2023-02-01T05:46:18;95933.56;;;5.09;78.13
25526;BME280;13424;48.424;11.258;2023-02-01T05:48:43;95932.28;;;5.05;77.71
25526;BME280;13424;48.424;11.258;2023-02-01T05:51:10;95929.31;;;5.15;77.82
25526;BME280;13424;48.424;11.258;2023-02-01T05:53:36;95929.09;;;5.16;77.70
25526;BME280;13424;48.424;11.258;2023-02-01T05:56:05;95928.69;;;5.19;77.67
25526;BME280;13424;48.424;11.258;2023-02-01T05:58:31;95928.88;;;5.11;77.70
25526;BME280;13424;48.424;11.258;2023-02-01T06:01:00;95911.97;;;4.99;77.72
25526;BME280;13424;48.424;11.258;2023-02-01T06:03:26;95905.88;;;5.12;77.77
25526;BME280;13424;48.424;11.258;2023-02-01T06:05:51;95910.81;;;5.15;77.78
25526;BME280;13424;48.424;11.258;2023-02-01T06:08:17;95906.03;;;4.97;77.85
25526;BME280;13424;48.424;11.258;2023-02-01T06:10:43;95916.66;;;5.10;77.46
25526;BME280;13424;48.424;11.258;2023-02-01T06:13:09;95916.22;;;5.00;77.76
25526;BME280;13424;48.424;11.258;2023-02-01T06:15:35;95924.38;;;5.05;78.11
25526;BME280;13424;48.424;11.258;2023-02-01T06:18:03;95921.09;;;5.03;77.54
25526;BME280;13424;48.424;11.258;2023-02-01T06:20:29;95925.44;;;5.17;77.85
25526;BME280;13424;48.424;11.258;2023-02-01T06:22:55;95924.69;;;5.37;77.06
25526;BME280;13424;48.424;11.258;2023-02-01T06:25:21;95940.03;;;5.00;78.44
25526;BME280;13424;48.424;11.258;2023-02-01T06:27:47;95926.19;;;5.04;77.85
25526;BME280;13424;48.424;11.258;2023-02-01T06:30:13;95918.75;;;5.21;77.44
25526;BME280;13424;48.424;11.258;2023-02-01T06:32:43;95920.16;;;5.17;77.63
25526;BME280;13424;48.424;11.258;2023-02-01T06:35:10;95916.38;;;5.40;77.01
25526;BME280;13424;48.424;11.258;2023-02-01T06:37:47;95931.56;;;5.18;77.50
25526;BME280;13424;48.424;11.258;2023-02-01T06:40:13;95927.25;;;5.10;77.52
25526;BME280;13424;48.424;11.258;2023-02-01T06:42:48;95944.81;;;5.24;76.97
25526;BME280;13424;48.424;11.258;2023-02-01T06:45:16;95943.78;;;5.25;76.47
25526;BME280;13424;48.424;11.258;2023-02-01T06:47:42;95934.25;;;5.31;76.82
25526;BME280;13424;48.424;11.258;2023-02-01T06:50:08;95932.00;;;5.21;76.72
25526;BME280;13424;48.424;11.258;2023-02-01T06:52:35;95941.56;;;5.36;76.92
25526;BME280;13424;48.424;11.258;2023-02-01T06:55:01;95936.88;;;5.24;77.20
25526;BME280;13424;48.424;11.258;2023-02-01T06:57:27;95936.81;;;5.11;77.44
25526;BME280;13424;48.424;11.258;2023-02-01T06:59:57;95933.19;;;5.19;77.48
25526;BME280;13424;48.424;11.258;2023-02-01T07:02:24;95933.59;;;5.16;77.13
25526;BME280;13424;48.424;11.258;2023-02-01T07:04:52;95944.53;;;5.06;77.67
25526;BME280;13424;48.424;11.258;2023-02-01T07:07:20;95942.91;;;5.12;77.13
25526;BME280;13424;48.424;11.258;2023-02-01T07:09:49;95948.19;;;5.12;77.55
25526;BME280;13424;48.424;11.258;2023-02-01T07:12:16;95947.25;;;5.26;76.71
25526;BME280;13424;48.424;11.258;2023-02-01T07:14:42;95937.44;;;5.20;76.92
25526;BME280;13424;48.424;11.258;2023-02-01T07:17:08;95934.84;;;5.26;77.16
25526;BME280;13424;48.424;11.258;2023-02-01T07:19:35;95941.38;;;5.30;77.51
25526;BME280;13424;48.424;11.258;2023-02-01T07:22:00;95952.19;;;5.42;75.89
25526;BME280;13424;48.424;11.258;2023-02-01T07:24:26;95940.19;;;5.40;76.02
25526;BME280;13424;48.424;11.258;2023-02-01T07:30:27;95944.19;;;5.22;76.14
25526;BME280;13424;48.424;11.258;2023-02-01T07:32:53;95950.09;;;5.24;76.32
25526;BME280;13424;48.424;11.258;2023-02-01T07:35:21;95954.63;;;5.44;75.90
25526;BME280;13424;48.424;11.258;2023-02-01T07:37:48;95949.38;;;5.57;75.38
25526;BME280;13424;48.424;11.258;2023-02-01T07:40:17;95956.03;;;5.33;75.61
25526;BME280;13424;48.424;11.258;2023-02-01T07:42:43;95955.63;;;5.29;75.69
25526;BME280;13424;48.424;11.258;2023-02-01T07:45:10;95955.66;;;5.49;75.47
25526;BME280;13424;48.424;11.258;2023-02-01T07:47:36;95955.19;;;5.26;76.05
25526;BME280;13424;48.424;11.258;2023-02-01T07:50:02;95956.03;;;5.33;75.33
25526;BME280;13424;48.424;11.258;2023-02-01T07:52:28;95949.72;;;5.34;75.41
25526;BME280;13424;48.424;11.258;2023-02-01T07:55:07;95960.56;;;5.52;75.42
25526;BME280;13424;48.424;11.258;2023-02-01T07:57:33;95958.19;;;5.71;75.18
25526;BME280;13424;48.424;11.258;2023-02-01T07:59:59;95966.69;;;5.59;75.18
25526;BME280;13424;48.424;11.258;2023-02-01T08:02:46;95972.59;;;5.55;74.74
25526;BME280;13424;48.424;11.258;2023-02-01T08:05:12;95978.50;;;5.57;75.34
25526;BME280;13424;48.424;11.258;2023-02-01T08:07:37;95978.72;;;5.62;74.19
25526;BME280;13424;48.424;11.258;2023-02-01T08:10:04;95993.97;;;5.53;74.99
25526;BME280;13424;48.424;11.258;2023-02-01T08:12:32;95987.22;;;5.51;74.88
25526;BME280;13424;48.424;11.258;2023-02-01T08:15:07;95983.13;;;6.03;73.37
25526;BME280;13424;48.424;11.258;2023-02-01T08:17:33;95982.41;;;5.74;73.83
25526;BME280;13424;48.424;11.258;2023-02-01T08:19:59;95993.22;;;5.79;73.47
25526;BME280;13424;48.424;11.258;2023-02-01T08:22:25;95995.47;;;5.89;73.41
25526;BME280;13424;48.424;11.258;2023-02-01T08:24:51;95991.63;;;5.92;73.71
25526;BME280;13424;48.424;11.258;2023-02-01T08:27:17;95980.28;;;6.11;72.66
25526;BME280;13424;48.424;11.258;2023-02-01T08:29:43;95970.06;;;5.95;72.33
25526;BME280;13424;48.424;11.258;2023-02-01T08:32:09;95987.19;;;6.12;72.93
25526;BME280;13424;48.424;11.258;2023-02-01T08:34:35;95982.31;;;6.02;72.90
25526;BME280;13424;48.424;11.258;2023-02-01T08:37:01;96002.50;;;6.17;72.31
25526;BME280;13424;48.424;11.258;2023-02-01T08:39:26;95993.53;;;6.37;72.40
25526;BME280;13424;48.424;11.258;2023-02-01T08:41:52;95993.72;;;6.16;72.09
25526;BME280;13424;48.424;11.258;2023-02-01T08:44:37;95994.75;;;6.08;71.76
25526;BME280;13424;48.424;11.258;2023-02-01T08:47:04;95987.63;;;6.09;72.39
25526;BME280;13424;48.424;11.258;2023-02-01T08:49:30;95995.13;;;6.05;72.66
25526;BME280;13424;48.424;11.258;2023-02-01T08:51:58;95998.19;;;5.96;71.87
25526;BME280;13424;48.424;11.258;2023-02-01T08:54:24;96002.28;;;6.11;72.72
25526;BME280;13424;48.424;11.258;2023-02-01T09:00:56;95990.47;;;6.27;71.36
25526;BME280;13424;48.424;11.258;2023-02-01T09:03:22;95992.91;;;6.22;71.15
25526;BME280;13424;48.424;11.258;2023-02-01T09:05:48;95982.31;;;6.09;71.71
25526;BME280;13424;48.424;11.258;2023-02-01T09:11:37;95959.91;;;6.18;71.28
25526;BME280;13424;48.424;11.258;2023-02-01T09:14:02;95967.44;;;6.34;71.53
25526;BME280;13424;48.424;11.258;2023-02-01T09:16:28;95962.34;;;6.26;70.85
25526;BME280;13424;48.424;11.258;2023-02-01T09:18:55;95963.16;;;6.47;70.90
25526;BME280;13424;48.424;11.258;2023-02-01T09:21:21;95966.00;;;6.52;70.26
25526;BME280;13424;48.424;11.258;2023-02-01T09:23:47;95983.53;;;6.66;70.83
25526;BME280;13424;48.424;11.258;2023-02-01T09:26:14;95965.19;;;6.44;70.38
25526;BME280;13424;48.424;11.258;2023-02-01T09:28:40;95961.09;;;6.55;70.20
25526;BME280;13424;48.424;11.258;2023-02-01T09:31:06;95974.38;;;6.22;71.31
25526;BME280;13424;48.424;11.258;2023-02-01T09:33:33;95971.31;;;6.38;71.17
25526;BME280;13424;48.424;11.258;2023-02-01T09:36:02;95981.91;;;6.38;70.19
25526;BME280;13424;48.424;11.258;2023-02-01T09:48:44;95973.78;;;6.27;71.20
25526;BME280;13424;48.424;11.258;2023-02-01T09:51:16;95993.53;;;6.11;70.68
25526;BME280;13424;48.424;11.258;2023-02-01T09:54:34;95997.56;;;5.94;71.47
25526;BME280;13424;48.424;11.258;2023-02-01T09:57:08;95998.22;;;6.35;70.89
25526;BME280;13424;48.424;11.258;2023-02-01T09:59:47;96005.56;;;6.27;71.16
25526;BME280;13424;48.424;11.258;2023-02-01T10:02:25;96003.94;;;6.46;70.35
25526;BME280;13424;48.424;11.258;2023-02-01T10:04:55;95997.00;;;6.25;71.12
25526;BME280;13424;48.424;11.258;2023-02-01T10:10:51;95995.34;;;6.63;69.62
25526;BME280;13424;48.424;11.258;2023-02-01T10:19:10;96015.97;;;6.41;70.45
25526;BME280;13424;48.424;11.258;2023-02-01T10:22:10;96020.44;;;6.61;70.80
25526;BME280;13424;48.424;11.258;2023-02-01T10:25:30;96018.56;;;6.15;71.04
25526;BME280;13424;48.424;11.258;2023-02-01T10:27:56;96020.03;;;6.37;70.37
25526;BME280;13424;48.424;11.258;2023-02-01T10:30:29;96023.91;;;6.55;70.10
25526;BME280;13424;48.424;11.258;2023-02-01T10:33:07;96010.22;;;6.11;71.32
25526;BME280;13424;48.424;11.258;2023-02-01T10:35:39;96015.97;;;6.41;70.54
25526;BME280;13424;48.424;11.258;2023-02-01T10:38:26;96021.03;;;6.17;71.25
25526;BME280;13424;48.424;11.258;2023-02-01T10:40:54;96031.66;;;6.36;71.45
25526;BME280;13424;48.424;11.258;2023-02-01T10:43:21;96016.13;;;6.13;72.37
25526;BME280;13424;48.424;11.258;2023-02-01T10:45:47;96013.06;;;6.23;71.01
25526;BME280;13424;48.424;11.258;2023-02-01T10:48:12;96022.69;;;6.24;71.83
25526;BME280;13424;48.424;11.258;2023-02-01T10:51:07;96048.31;;;6.04;72.00
25526;BME280;13424;48.424;11.258;2023-02-01T10:53:52;96027.13;;;6.04;71.76
25526;BME280;13424;48.424;11.258;2023-02-01T10:56:26;96022.84;;;6.03;71.49
25526;BME280;13424;48.424;11.258;2023-02-01T10:59:18;96020.41;;;6.21;71.38
25526;BME280;13424;48.424;11.258;2023-02-01T11:01:49;96026.75;;;6.33;71.16
25526;BME280;13424;48.424;11.258;2023-02-01T11:04:18;96017.38;;;6.37;70.81
25526;BME280;13424;48.424;11.258;2023-02-01T11:07:20;96026.16;;;6.25;71.02
25526;BME280;13424;48.424;11.258;2023-02-01T11:09:56;96030.44;;;6.32;70.77
25526;BME280;13424;48.424;11.258;2023-02-01T11:12:36;96024.28;;;6.19;71.50
25526;BME280;13424;48.424;11.258;2023-02-01T11:17:42;96041.03;;;6.59;70.31
25526;BME280;13424;48.424;11.258;2023-02-01T11:20:20;96035.34;;;6.42;70.46
25526;BME280;13424;48.424;11.258;2023-02-01T11:22:54;96052.66;;;6.51;70.29
25526;BME280;13424;48.424;11.258;2023-02-01T11:25:22;96045.47;;;6.12;71.67
25526;BME280;13424;48.424;11.258;2023-02-01T11:27:50;96049.31;;;5.96;72.03
25526;BME280;13424;48.424;11.258;2023-02-01T11:30:38;96036.09;;;6.23;71.08
25526;BME280;13424;48.424;11.258;2023-02-01T11:33:18;96040.66;;;5.81;71.02
25526;BME280;13424;48.424;11.258;2023-02-01T11:35:45;96030.44;;;6.32;71.02
25526;BME280;13424;48.424;11.258;2023-02-01T11:38:28;96029.59;;;6.38;70.46
25526;BME280;13424;48.424;11.258;2023-02-01T11:40:54;96034.69;;;6.20;71.07
25526;BME280;13424;48.424;11.258;2023-02-01T11:43:27;96018.75;;;6.07;71.62
25526;BME280;13424;48.424;11.258;2023-02-01T11:46:02;96019.97;;;6.04;71.43
25526;BME280;13424;48.424;11.258;2023-02-01T11:48:30;96023.91;;;6.28;71.29
25526;BME280;13424;48.424;11.258;2023-02-01T11:58:04;96004.94;;;6.25;70.71
25526;BME280;13424;48.424;11.258;2023-02-01T12:07:08;96001.06;;;6.01;70.96
25526;BME280;13424;48.424;11.258;2023-02-01T12:15:50;95985.97;;;6.01;71.34
25526;BME280;13424;48.424;11.258;2023-02-01T12:21:58;95978.63;;;6.03;71.81
25526;BME280;13424;48.424;11.258;2023-02-01T12:24:52;95983.88;;;5.90;71.45
25526;BME280;13424;48.424;11.258;2023-02-01T12:34:17;95976.22;;;6.08;71.28
25526;BME280;13424;48.424;11.258;2023-02-01T12:40:05;95956.63;;;6.23;70.44
25526;BME280;13424;48.424;11.258;2023-02-01T12:43:11;95952.59;;;6.33;70.65
25526;BME280;13424;48.424;11.258;2023-02-01T12:45:59;95952.16;;;6.36;70.19
25526;BME280;13424;48.424;11.258;2023-02-01T12:48:35;95947.28;;;6.20;70.12
25526;BME280;13424;48.424;11.258;2023-02-01T12:51:17;95946.44;;;6.13;69.91
25526;BME280;13424;48.424;11.258;2023-02-01T12:57:02;95948.50;;;6.24;69.56
25526;BME280;13424;48.424;11.258;2023-02-01T12:59:38;95954.59;;;6.31;70.19
25526;BME280;13424;48.424;11.258;2023-02-01T13:11:38;95952.56;;;6.27;69.13
25526;BME280;13424;48.424;11.258;2023-02-01T13:14:32;95950.50;;;6.62;68.69
25526;BME280;13424;48.424;11.258;2023-02-01T13:17:37;95934.78;;;6.74;68.36
25526;BME280;13424;48.424;11.258;2023-02-01T13:20:21;95930.31;;;6.67;67.89
25526;BME280;13424;48.424;11.258;2023-02-01T13:22:59;95946.44;;;6.66;68.03
25526;BME280;13424;48.424;11.258;2023-02-01T13:25:49;95950.09;;;6.65;68.04
25526;BME280;13424;48.424;11.258;2023-02-01T13:28:52;95943.13;;;6.77;68.00
25526;BME280;13424;48.424;11.258;2023-02-01T13:34:48;95940.75;;;6.56;68.85
25526;BME280;13424;48.424;11.258;2023-02-01T13:40:18;95941.13;;;6.66;68.90
25526;BME280;13424;48.424;11.258;2023-02-01T13:43:01;95945.22;;;6.49;68.86
25526;BME280;13424;48.424;11.258;2023-02-01T13:48:56;95941.16;;;6.26;68.92
25526;BME280;13424;48.424;11.258;2023-02-01T13:51:42;95937.72;;;6.26;69.60
25526;BME280;13424;48.424;11.258;2023-02-01T13:54:27;95945.44;;;6.40;69.79
25526;BME280;13424;48.424;11.258;2023-02-01T13:56:53;95930.53;;;6.39;69.82
25526;BME280;13424;48.424;11.258;2023-02-01T14:05:10;95938.31;;;6.34;69.83
25526;BME280;13424;48.424;11.258;2023-02-01T14:07:36;95934.63;;;6.22;70.48
25526;BME280;13424;48.424;11.258;2023-02-01T14:13:30;95936.28;;;6.10;70.33
25526;BME280;13424;48.424;11.258;2023-02-01T14:21:35;95942.59;;;6.42;70.90
25526;BME280;13424;48.424;11.258;2023-02-01T14:24:22;95940.16;;;6.27;70.75
25526;BME280;13424;48.424;11.258;2023-02-01T14:26:53;95931.78;;;6.04;71.78
25526;BME280;13424;48.424;11.258;2023-02-01T14:29:37;95924.44;;;5.93;72.36
25526;BME280;13424;48.424;11.258;2023-02-01T14:32:21;95939.06;;;5.82;72.83
25526;BME280;13424;48.424;11.258;2023-02-01T14:34:55;95933.38;;;5.92;73.08
25526;BME280;13424;48.424;11.258;2023-02-01T14:37:32;95924.44;;;5.93;72.34
25526;BME280;13424;48.424;11.258;2023-02-01T14:40:20;95928.50;;;5.95;71.98
25526;BME280;13424;48.424;11.258;2023-02-01T14:42:51;95926.84;;;5.87;72.53
25526;BME280;13424;48.424;11.258;2023-02-01T14:47:52;95933.38;;;5.92;71.53
25526;BME280;13424;48.424;11.258;2023-02-01T14:50:33;95938.69;;;6.05;71.69
25526;BME280;13424;48.424;11.258;2023-02-01T14:58:56;95936.88;;;6.05;70.13
25526;BME280;13424;48.424;11.258;2023-02-01T15:01:34;95940.28;;;5.86;70.40
25526;BME280;13424;48.424;11.258;2023-02-01T15:04:18;95946.03;;;6.16;70.55
25526;BME280;13424;48.424;11.258;2023-02-01T15:07:05;95937.50;;;6.01;70.22
25526;BME280;13424;48.424;11.258;2023-02-01T15:09:54;95943.19;;;6.04;69.39
25526;BME280;13424;48.424;11.258;2023-02-01T15:12:27;95939.94;;;6.09;69.86
25526;BME280;13424;48.424;11.258;2023-02-01T15:15:22;95928.53;;;6.08;69.72
25526;BME280;13424;48.424;11.258;2023-02-01T15:17:57;95944.81;;;6.12;69.56
25526;BME280;13424;48.424;11.258;2023-02-01T15:20:30;95935.25;;;6.04;68.91
25526;BME280;13424;48.424;11.258;2023-02-01T15:23:03;95954.56;;;5.92;69.08
25526;BME280;13424;48.424;11.258;2023-02-01T15:25:38;95954.22;;;6.34;69.16
25526;BME280;13424;48.424;11.258;2023-02-01T15:28:16;95950.94;;;5.93;69.28
25526;BME280;13424;48.424;11.258;2023-02-01T15:31:00;95935.44;;;6.29;67.83
25526;BME280;13424;48.424;11.258;2023-02-01T15:33:27;95929.75;;;6.32;68.13
25526;BME280;13424;48.424;11.258;2023-02-01T15:36:18;95937.88;;;6.37;67.96
25526;BME280;13424;48.424;11.258;2023-02-01T15:38:44;95942.41;;;6.17;68.51
25526;BME280;13424;48.424;11.258;2023-02-01T15:41:18;95944.84;;;6.25;67.49
25526;BME280;13424;48.424;11.258;2023-02-01T15:44:12;95935.44;;;6.23;66.94
25526;BME280;13424;48.424;11.258;2023-02-01T15:46:42;95939.94;;;6.49;66.77
25526;BME280;13424;48.424;11.258;2023-02-01T15:49:36;95949.72;;;6.28;67.41
25526;BME280;13424;48.424;11.258;2023-02-01T15:52:34;95943.81;;;6.33;67.22
25526;BME280;13424;48.424;11.258;2023-02-01T15:55:04;95950.94;;;6.46;66.11
25526;BME280;13424;48.424;11.258;2023-02-01T15:57:38;95961.56;;;6.32;65.84
25526;BME280;13424;48.424;11.258;2023-02-01T16:03:39;95953.38;;;6.21;66.98
25526;BME280;13424;48.424;11.258;2023-02-01T16:06:29;95961.56;;;6.32;67.04
25526;BME280;13424;48.424;11.258;2023-02-01T16:09:11;95962.34;;;6.26;67.00